EVA203 RCTP-ROAH
Flight info
| Callsign | EVA203 |
|---|---|
| Flight time | 1h 7m |
| Altitude | 33000 |
| Route | RCTP ROBI1A ROBIN G587 PABSO R583 BORDO Z31 ENTOK ENTOKS ROAH |
| Aircraft | B738/M-VGD/A |
Departure
| Time | 2026-04-25 13:13 |
|---|---|
| Airport | Taiwan Taoyuan International Airport (RCTP) |
Arrival
| Time | 2026-04-25 14:21 |
|---|---|
| Airport | Naha International Airport (ROAH) |
| Time | Latitude | Longitude | Altitude | Speed | Heading |
|---|---|---|---|---|---|
| 2026-04-25 12:35 | 25.07640 | 121.23480 | 111 ft | 0 kts | 320° |
| 2026-04-25 12:54 | 25.07639 | 121.23480 | 112 ft | 0 kts | 320° |
| 2026-04-25 12:54 | 25.07628 | 121.23490 | 112 ft | 2 kts | 319° |
| 2026-04-25 12:54 | 25.07617 | 121.23501 | 112 ft | 2 kts | 318° |
| 2026-04-25 12:55 | 25.07610 | 121.23508 | 112 ft | 2 kts | 319° |
| 2026-04-25 12:55 | 25.07598 | 121.23519 | 112 ft | 2 kts | 318° |
| 2026-04-25 12:55 | 25.07583 | 121.23534 | 112 ft | 2 kts | 319° |
| 2026-04-25 12:55 | 25.07572 | 121.23544 | 112 ft | 2 kts | 319° |
| 2026-04-25 12:56 | 25.07561 | 121.23556 | 112 ft | 2 kts | 318° |
| 2026-04-25 12:56 | 25.07552 | 121.23568 | 112 ft | 1 kts | 274° |
| 2026-04-25 12:56 | 25.07556 | 121.23580 | 112 ft | 2 kts | 223° |
| 2026-04-25 12:56 | 25.07562 | 121.23586 | 112 ft | 0 kts | 221° |
| 2026-04-25 12:57 | 25.07564 | 121.23588 | 112 ft | 0 kts | 224° |
| 2026-04-25 13:01 | 25.07554 | 121.23577 | 111 ft | 4 kts | 225° |
| 2026-04-25 13:01 | 25.07522 | 121.23540 | 112 ft | 9 kts | 227° |
| 2026-04-25 13:01 | 25.07468 | 121.23471 | 112 ft | 13 kts | 229° |
| 2026-04-25 13:02 | 25.07409 | 121.23395 | 112 ft | 12 kts | 229° |
| 2026-04-25 13:02 | 25.07352 | 121.23322 | 112 ft | 12 kts | 229° |
| 2026-04-25 13:02 | 25.07299 | 121.23255 | 111 ft | 11 kts | 229° |
| 2026-04-25 13:02 | 25.07289 | 121.23241 | 111 ft | 0 kts | 229° |
| 2026-04-25 13:04 | 25.07288 | 121.23240 | 111 ft | 1 kts | 229° |
| 2026-04-25 13:04 | 25.07265 | 121.23210 | 112 ft | 8 kts | 230° |
| 2026-04-25 13:04 | 25.07204 | 121.23186 | 111 ft | 12 kts | 160° |
| 2026-04-25 13:04 | 25.07120 | 121.23195 | 111 ft | 12 kts | 215° |
| 2026-04-25 13:05 | 25.07064 | 121.23125 | 111 ft | 12 kts | 230° |
| 2026-04-25 13:05 | 25.07005 | 121.23051 | 111 ft | 13 kts | 228° |
| 2026-04-25 13:05 | 25.06942 | 121.22971 | 112 ft | 14 kts | 229° |
| 2026-04-25 13:05 | 25.06911 | 121.22932 | 111 ft | 0 kts | 229° |
| 2026-04-25 13:06 | 25.06909 | 121.22929 | 112 ft | 2 kts | 229° |
| 2026-04-25 13:06 | 25.06883 | 121.22896 | 112 ft | 9 kts | 230° |
| 2026-04-25 13:06 | 25.06825 | 121.22821 | 111 ft | 15 kts | 229° |
| 2026-04-25 13:07 | 25.06750 | 121.22726 | 112 ft | 17 kts | 228° |
| 2026-04-25 13:07 | 25.06717 | 121.22686 | 112 ft | 0 kts | 228° |
| 2026-04-25 13:08 | 25.06702 | 121.22667 | 111 ft | 6 kts | 226° |
| 2026-04-25 13:09 | 25.06661 | 121.22683 | 112 ft | 9 kts | 144° |
| 2026-04-25 13:09 | 25.06597 | 121.22675 | 112 ft | 9 kts | 221° |
| 2026-04-25 13:09 | 25.06551 | 121.22622 | 111 ft | 10 kts | 229° |
| 2026-04-25 13:09 | 25.06500 | 121.22557 | 112 ft | 12 kts | 229° |
| 2026-04-25 13:10 | 25.06440 | 121.22482 | 111 ft | 13 kts | 228° |
| 2026-04-25 13:10 | 25.06373 | 121.22395 | 111 ft | 15 kts | 229° |
| 2026-04-25 13:10 | 25.06307 | 121.22309 | 111 ft | 14 kts | 228° |
| 2026-04-25 13:10 | 25.06235 | 121.22247 | 111 ft | 10 kts | 185° |
| 2026-04-25 13:11 | 25.06205 | 121.22256 | 111 ft | 0 kts | 152° |
| 2026-04-25 13:12 | 25.06204 | 121.22257 | 111 ft | 0 kts | 151° |
| 2026-04-25 13:12 | 25.06183 | 121.22272 | 112 ft | 8 kts | 143° |
| 2026-04-25 13:12 | 25.06123 | 121.22338 | 112 ft | 15 kts | 114° |
| 2026-04-25 13:12 | 25.06139 | 121.22419 | 111 ft | 17 kts | 48° |
| 2026-04-25 13:13 | 25.06380 | 121.22729 | 112 ft | 91 kts | 49° |
| 2026-04-25 13:13 | 25.06978 | 121.23498 | 140 ft | 165 kts | 53° |
| 2026-04-25 13:13 | 25.07689 | 121.24519 | 788 ft | 176 kts | 56° |
| 2026-04-25 13:13 | 25.08487 | 121.25575 | 1345 ft | 178 kts | 51° |
| 2026-04-25 13:14 | 25.09312 | 121.26591 | 1948 ft | 182 kts | 51° |
| 2026-04-25 13:14 | 25.10142 | 121.27633 | 2549 ft | 183 kts | 52° |
| 2026-04-25 13:14 | 25.10989 | 121.28720 | 2974 ft | 192 kts | 52° |
| 2026-04-25 13:14 | 25.11874 | 121.29847 | 3242 ft | 201 kts | 50° |
| 2026-04-25 13:15 | 25.12870 | 121.30991 | 3672 ft | 217 kts | 48° |
| 2026-04-25 13:15 | 25.13978 | 121.32234 | 3975 ft | 238 kts | 48° |
| 2026-04-25 13:15 | 25.15182 | 121.33602 | 4337 ft | 255 kts | 48° |
| 2026-04-25 13:15 | 25.16413 | 121.35010 | 4909 ft | 261 kts | 48° |
| 2026-04-25 13:16 | 25.17681 | 121.36465 | 5532 ft | 264 kts | 48° |
| 2026-04-25 13:16 | 25.18944 | 121.37919 | 6157 ft | 267 kts | 49° |
| 2026-04-25 13:16 | 25.20230 | 121.39403 | 6780 ft | 269 kts | 50° |
| 2026-04-25 13:16 | 25.21193 | 121.41146 | 7368 ft | 267 kts | 70° |
| 2026-04-25 13:17 | 25.21781 | 121.43087 | 7974 ft | 268 kts | 75° |
| 2026-04-25 13:17 | 25.22303 | 121.45046 | 8550 ft | 270 kts | 75° |
| 2026-04-25 13:17 | 25.22825 | 121.47038 | 9113 ft | 271 kts | 75° |
| 2026-04-25 13:17 | 25.23347 | 121.49031 | 9659 ft | 273 kts | 75° |
| 2026-04-25 13:18 | 25.23878 | 121.51060 | 10200 ft | 275 kts | 75° |
| 2026-04-25 13:18 | 25.24413 | 121.53105 | 10725 ft | 277 kts | 75° |
| 2026-04-25 13:18 | 25.24946 | 121.55145 | 11235 ft | 279 kts | 75° |
| 2026-04-25 13:18 | 25.25479 | 121.57186 | 11729 ft | 281 kts | 75° |
| 2026-04-25 13:19 | 25.26026 | 121.59281 | 12214 ft | 283 kts | 75° |
| 2026-04-25 13:19 | 25.26565 | 121.61347 | 12664 ft | 285 kts | 75° |
| 2026-04-25 13:19 | 25.27118 | 121.63468 | 13110 ft | 288 kts | 75° |
| 2026-04-25 13:19 | 25.27264 | 121.64027 | 13226 ft | 288 kts | 75° |
| 2026-04-25 13:20 | 25.28112 | 121.67286 | 13889 ft | 292 kts | 76° |
| 2026-04-25 13:20 | 25.28480 | 121.68703 | 14167 ft | 293 kts | 76° |
| 2026-04-25 13:20 | 25.29238 | 121.71624 | 14724 ft | 296 kts | 76° |
| 2026-04-25 13:20 | 25.29800 | 121.73790 | 15119 ft | 298 kts | 76° |
| 2026-04-25 13:21 | 25.30374 | 121.76000 | 15512 ft | 301 kts | 76° |
| 2026-04-25 13:21 | 25.30962 | 121.78272 | 15744 ft | 315 kts | 76° |
| 2026-04-25 13:21 | 25.31570 | 121.80626 | 16112 ft | 327 kts | 76° |
| 2026-04-25 13:21 | 25.32208 | 121.83100 | 16371 ft | 343 kts | 76° |
| 2026-04-25 13:22 | 25.32879 | 121.85701 | 16615 ft | 358 kts | 76° |
| 2026-04-25 13:22 | 25.33565 | 121.88357 | 17000 ft | 368 kts | 76° |
| 2026-04-25 13:22 | 25.34280 | 121.91125 | 17533 ft | 374 kts | 76° |
| 2026-04-25 13:23 | 25.35716 | 121.96687 | 18656 ft | 383 kts | 76° |
| 2026-04-25 13:23 | 25.36451 | 121.99535 | 19216 ft | 387 kts | 76° |
| 2026-04-25 13:23 | 25.37195 | 122.02420 | 19766 ft | 391 kts | 76° |
| 2026-04-25 13:23 | 25.37933 | 122.05283 | 20293 ft | 394 kts | 76° |
| 2026-04-25 13:24 | 25.38689 | 122.08221 | 20819 ft | 398 kts | 76° |
| 2026-04-25 13:24 | 25.39447 | 122.11169 | 21328 ft | 402 kts | 76° |
| 2026-04-25 13:24 | 25.40216 | 122.14157 | 21827 ft | 405 kts | 76° |
| 2026-04-25 13:24 | 25.40981 | 122.17138 | 22311 ft | 409 kts | 76° |
| 2026-04-25 13:25 | 25.41498 | 122.19151 | 22629 ft | 411 kts | 76° |
| 2026-04-25 13:25 | 25.42667 | 122.23210 | 23256 ft | 417 kts | 72° |
| 2026-04-25 13:25 | 25.43692 | 122.26187 | 23711 ft | 421 kts | 71° |
| 2026-04-25 13:25 | 25.44755 | 122.29237 | 24163 ft | 424 kts | 71° |
| 2026-04-25 13:26 | 25.45799 | 122.32284 | 24602 ft | 428 kts | 71° |
| 2026-04-25 13:26 | 25.46848 | 122.35384 | 25035 ft | 431 kts | 71° |
| 2026-04-25 13:26 | 25.47894 | 122.38492 | 25457 ft | 434 kts | 71° |
| 2026-04-25 13:26 | 25.48944 | 122.41613 | 25867 ft | 438 kts | 71° |
| 2026-04-25 13:27 | 25.50012 | 122.44791 | 26272 ft | 441 kts | 71° |
| 2026-04-25 13:27 | 25.51080 | 122.47967 | 26728 ft | 442 kts | 71° |
| 2026-04-25 13:27 | 25.52152 | 122.51160 | 27215 ft | 443 kts | 71° |
| 2026-04-25 13:27 | 25.53220 | 122.54341 | 27707 ft | 443 kts | 71° |
| 2026-04-25 13:28 | 25.54285 | 122.57519 | 28196 ft | 443 kts | 71° |
| 2026-04-25 13:28 | 25.54635 | 122.58566 | 28355 ft | 443 kts | 71° |
| 2026-04-25 13:28 | 25.56417 | 122.63888 | 29149 ft | 442 kts | 71° |
| 2026-04-25 13:28 | 25.57481 | 122.67071 | 29620 ft | 442 kts | 72° |
| 2026-04-25 13:29 | 25.58545 | 122.70255 | 30076 ft | 441 kts | 72° |
| 2026-04-25 13:29 | 25.59613 | 122.73454 | 30325 ft | 446 kts | 71° |
| 2026-04-25 13:29 | 25.60687 | 122.76675 | 30454 ft | 453 kts | 71° |
| 2026-04-25 13:30 | 25.62522 | 122.82183 | 30844 ft | 461 kts | 71° |
| 2026-04-25 13:30 | 25.64001 | 122.86627 | 31142 ft | 467 kts | 71° |
| 2026-04-25 13:30 | 25.65141 | 122.90056 | 31369 ft | 472 kts | 71° |
| 2026-04-25 13:31 | 25.67406 | 122.96876 | 31978 ft | 477 kts | 71° |
| 2026-04-25 13:31 | 25.68559 | 123.00355 | 32356 ft | 478 kts | 71° |
| 2026-04-25 13:31 | 25.69695 | 123.03775 | 32793 ft | 477 kts | 71° |
| 2026-04-25 13:31 | 25.70853 | 123.07236 | 32982 ft | 479 kts | 70° |
| 2026-04-25 13:32 | 25.72014 | 123.10688 | 33011 ft | 476 kts | 70° |
| 2026-04-25 13:32 | 25.74289 | 123.17453 | 33018 ft | 468 kts | 70° |
| 2026-04-25 13:33 | 25.76554 | 123.24207 | 33022 ft | 470 kts | 70° |
| 2026-04-25 13:33 | 25.78846 | 123.31052 | 33021 ft | 472 kts | 70° |
| 2026-04-25 13:34 | 25.81124 | 123.37866 | 33020 ft | 471 kts | 70° |
| 2026-04-25 13:34 | 25.83389 | 123.44654 | 33021 ft | 471 kts | 70° |
| 2026-04-25 13:35 | 25.85654 | 123.51453 | 33021 ft | 471 kts | 70° |
| 2026-04-25 13:35 | 25.87915 | 123.58252 | 33021 ft | 471 kts | 70° |
| 2026-04-25 13:36 | 25.90149 | 123.65031 | 33021 ft | 471 kts | 71° |
| 2026-04-25 13:36 | 25.92419 | 123.71905 | 33021 ft | 471 kts | 71° |
| 2026-04-25 13:37 | 25.94667 | 123.78707 | 33020 ft | 471 kts | 71° |
| 2026-04-25 13:37 | 25.96916 | 123.85522 | 33021 ft | 471 kts | 71° |
| 2026-04-25 13:38 | 25.99155 | 123.92322 | 33021 ft | 471 kts | 71° |
| 2026-04-25 13:38 | 26.01405 | 123.99165 | 33021 ft | 471 kts | 71° |
| 2026-04-25 13:39 | 26.03543 | 124.06009 | 33021 ft | 471 kts | 72° |
| 2026-04-25 13:39 | 26.05635 | 124.12868 | 33021 ft | 471 kts | 72° |
| 2026-04-25 13:40 | 26.07750 | 124.19742 | 33021 ft | 471 kts | 72° |
| 2026-04-25 13:40 | 26.09864 | 124.26625 | 33021 ft | 471 kts | 72° |
| 2026-04-25 13:41 | 26.11973 | 124.33505 | 33019 ft | 471 kts | 72° |
| 2026-04-25 13:41 | 26.14076 | 124.40379 | 33019 ft | 471 kts | 72° |
| 2026-04-25 13:42 | 26.16176 | 124.47255 | 33019 ft | 471 kts | 72° |
| 2026-04-25 13:42 | 26.18277 | 124.54147 | 33001 ft | 471 kts | 72° |
| 2026-04-25 13:42 | 26.19310 | 124.57543 | 32925 ft | 460 kts | 72° |
| 2026-04-25 13:43 | 26.20329 | 124.60892 | 32689 ft | 447 kts | 72° |
| 2026-04-25 13:43 | 26.21298 | 124.64082 | 32400 ft | 438 kts | 72° |
| 2026-04-25 13:43 | 26.22284 | 124.67332 | 31714 ft | 437 kts | 72° |
| 2026-04-25 13:43 | 26.23244 | 124.70500 | 31150 ft | 434 kts | 72° |
| 2026-04-25 13:44 | 26.24202 | 124.73661 | 30605 ft | 430 kts | 72° |
| 2026-04-25 13:44 | 26.25151 | 124.76795 | 30069 ft | 426 kts | 72° |
| 2026-04-25 13:44 | 26.26087 | 124.79894 | 29538 ft | 423 kts | 72° |
| 2026-04-25 13:44 | 26.27019 | 124.82977 | 29003 ft | 419 kts | 72° |
| 2026-04-25 13:45 | 26.27633 | 124.85011 | 28644 ft | 417 kts | 72° |
| 2026-04-25 13:45 | 26.28858 | 124.89075 | 27934 ft | 412 kts | 73° |
| 2026-04-25 13:45 | 26.29757 | 124.92058 | 27409 ft | 409 kts | 73° |
| 2026-04-25 13:45 | 26.30643 | 124.95073 | 26878 ft | 405 kts | 76° |
| 2026-04-25 13:46 | 26.31221 | 124.98112 | 26349 ft | 401 kts | 83° |
| 2026-04-25 13:46 | 26.31430 | 125.01160 | 25827 ft | 396 kts | 91° |
| 2026-04-25 13:46 | 26.31343 | 125.04232 | 25305 ft | 392 kts | 95° |
| 2026-04-25 13:46 | 26.31090 | 125.07220 | 24804 ft | 388 kts | 98° |
| 2026-04-25 13:47 | 26.30742 | 125.10181 | 24308 ft | 384 kts | 99° |
| 2026-04-25 13:47 | 26.30363 | 125.13084 | 23818 ft | 381 kts | 99° |
| 2026-04-25 13:47 | 26.29978 | 125.16005 | 23323 ft | 378 kts | 99° |
| 2026-04-25 13:47 | 26.29604 | 125.18862 | 22836 ft | 374 kts | 99° |
| 2026-04-25 13:48 | 26.29232 | 125.21712 | 22349 ft | 371 kts | 99° |
| 2026-04-25 13:48 | 26.28861 | 125.24561 | 21861 ft | 368 kts | 99° |
| 2026-04-25 13:48 | 26.28497 | 125.27347 | 21381 ft | 364 kts | 99° |
| 2026-04-25 13:48 | 26.28137 | 125.30107 | 20904 ft | 361 kts | 99° |
| 2026-04-25 13:49 | 26.27773 | 125.32882 | 20423 ft | 358 kts | 99° |
| 2026-04-25 13:49 | 26.27421 | 125.35573 | 19955 ft | 355 kts | 99° |
| 2026-04-25 13:49 | 26.27062 | 125.38303 | 19476 ft | 352 kts | 99° |
| 2026-04-25 13:49 | 26.26710 | 125.40976 | 19006 ft | 348 kts | 99° |
| 2026-04-25 13:50 | 26.26363 | 125.43610 | 18541 ft | 345 kts | 99° |
| 2026-04-25 13:50 | 26.26018 | 125.46227 | 18077 ft | 342 kts | 99° |
| 2026-04-25 13:50 | 26.25670 | 125.48859 | 17608 ft | 339 kts | 99° |
| 2026-04-25 13:50 | 26.25328 | 125.51446 | 17155 ft | 336 kts | 99° |
| 2026-04-25 13:51 | 26.24992 | 125.53986 | 17040 ft | 328 kts | 99° |
| 2026-04-25 13:51 | 26.24667 | 125.56435 | 16891 ft | 317 kts | 99° |
| 2026-04-25 13:51 | 26.24346 | 125.58848 | 16616 ft | 310 kts | 99° |
| 2026-04-25 13:51 | 26.24034 | 125.61195 | 16256 ft | 307 kts | 99° |
| 2026-04-25 13:52 | 26.23720 | 125.63543 | 15874 ft | 304 kts | 99° |
| 2026-04-25 13:52 | 26.23409 | 125.65874 | 15486 ft | 302 kts | 99° |
| 2026-04-25 13:52 | 26.23103 | 125.68166 | 15106 ft | 300 kts | 99° |
| 2026-04-25 13:52 | 26.22794 | 125.70471 | 14714 ft | 298 kts | 99° |
| 2026-04-25 13:53 | 26.22491 | 125.72735 | 14333 ft | 296 kts | 99° |
| 2026-04-25 13:53 | 26.22189 | 125.74984 | 13957 ft | 294 kts | 99° |
| 2026-04-25 13:53 | 26.21887 | 125.77232 | 13572 ft | 292 kts | 99° |
| 2026-04-25 13:53 | 26.21591 | 125.79438 | 13197 ft | 290 kts | 99° |
| 2026-04-25 13:54 | 26.21295 | 125.81634 | 12825 ft | 288 kts | 99° |
| 2026-04-25 13:54 | 26.21000 | 125.83827 | 12449 ft | 286 kts | 99° |
| 2026-04-25 13:54 | 26.20706 | 125.86003 | 12074 ft | 284 kts | 98° |
| 2026-04-25 13:54 | 26.20415 | 125.88164 | 11694 ft | 283 kts | 98° |
| 2026-04-25 13:55 | 26.20121 | 125.90333 | 11308 ft | 281 kts | 98° |
| 2026-04-25 13:55 | 26.19833 | 125.92463 | 10930 ft | 280 kts | 98° |
| 2026-04-25 13:55 | 26.19544 | 125.94595 | 10550 ft | 279 kts | 98° |
| 2026-04-25 13:55 | 26.19256 | 125.96719 | 10173 ft | 277 kts | 98° |
| 2026-04-25 13:56 | 26.18968 | 125.98843 | 9794 ft | 276 kts | 98° |
| 2026-04-25 13:56 | 26.18680 | 126.00960 | 9417 ft | 275 kts | 98° |
| 2026-04-25 13:56 | 26.18398 | 126.03030 | 9044 ft | 274 kts | 98° |
| 2026-04-25 13:56 | 26.18111 | 126.05136 | 8666 ft | 273 kts | 98° |
| 2026-04-25 13:57 | 26.17827 | 126.07218 | 8296 ft | 271 kts | 98° |
| 2026-04-25 13:57 | 26.17735 | 126.07896 | 8172 ft | 271 kts | 98° |
| 2026-04-25 13:57 | 26.17264 | 126.11340 | 7552 ft | 269 kts | 98° |
| 2026-04-25 13:57 | 26.16984 | 126.13385 | 7185 ft | 268 kts | 98° |
| 2026-04-25 13:58 | 26.16708 | 126.15404 | 7070 ft | 264 kts | 98° |
| 2026-04-25 13:58 | 26.16429 | 126.17432 | 7053 ft | 267 kts | 98° |
| 2026-04-25 13:58 | 26.16148 | 126.19486 | 7048 ft | 269 kts | 98° |
| 2026-04-25 13:58 | 26.15866 | 126.21533 | 7046 ft | 269 kts | 98° |
| 2026-04-25 13:59 | 26.15581 | 126.23608 | 7046 ft | 269 kts | 98° |
| 2026-04-25 13:59 | 26.15301 | 126.25642 | 7046 ft | 268 kts | 98° |
| 2026-04-25 13:59 | 26.15016 | 126.27706 | 7046 ft | 268 kts | 98° |
| 2026-04-25 13:59 | 26.14731 | 126.29771 | 7046 ft | 268 kts | 98° |
| 2026-04-25 14:00 | 26.14543 | 126.31130 | 7046 ft | 268 kts | 98° |
| 2026-04-25 14:00 | 26.14168 | 126.33850 | 7046 ft | 269 kts | 98° |
| 2026-04-25 14:00 | 26.13882 | 126.35909 | 7046 ft | 268 kts | 98° |
| 2026-04-25 14:00 | 26.13597 | 126.37971 | 7046 ft | 268 kts | 98° |
| 2026-04-25 14:01 | 26.13311 | 126.40028 | 7046 ft | 269 kts | 98° |
| 2026-04-25 14:01 | 26.13029 | 126.42061 | 7046 ft | 269 kts | 98° |
| 2026-04-25 14:01 | 26.12744 | 126.44114 | 7046 ft | 269 kts | 98° |
| 2026-04-25 14:01 | 26.12456 | 126.46180 | 7046 ft | 269 kts | 98° |
| 2026-04-25 14:02 | 26.12172 | 126.48222 | 7045 ft | 269 kts | 98° |
| 2026-04-25 14:02 | 26.11885 | 126.50280 | 7045 ft | 268 kts | 98° |
| 2026-04-25 14:02 | 26.11600 | 126.52319 | 7045 ft | 269 kts | 98° |
| 2026-04-25 14:02 | 26.11501 | 126.53026 | 7045 ft | 269 kts | 98° |
| 2026-04-25 14:03 | 26.11023 | 126.56443 | 7045 ft | 269 kts | 98° |
| 2026-04-25 14:03 | 26.10738 | 126.58475 | 7045 ft | 269 kts | 98° |
| 2026-04-25 14:03 | 26.10448 | 126.60545 | 7045 ft | 269 kts | 98° |
| 2026-04-25 14:03 | 26.10161 | 126.62590 | 7055 ft | 268 kts | 98° |
| 2026-04-25 14:04 | 26.09874 | 126.64631 | 7047 ft | 267 kts | 98° |
| 2026-04-25 14:04 | 26.09587 | 126.66671 | 7046 ft | 268 kts | 99° |
| 2026-04-25 14:04 | 26.09298 | 126.68721 | 7047 ft | 268 kts | 99° |
| 2026-04-25 14:04 | 26.09008 | 126.70776 | 7047 ft | 268 kts | 99° |
| 2026-04-25 14:05 | 26.08718 | 126.72832 | 7047 ft | 268 kts | 99° |
| 2026-04-25 14:05 | 26.08428 | 126.74885 | 7007 ft | 268 kts | 99° |
| 2026-04-25 14:05 | 26.08139 | 126.76928 | 7002 ft | 268 kts | 99° |
| 2026-04-25 14:05 | 26.07850 | 126.78971 | 7002 ft | 268 kts | 99° |
| 2026-04-25 14:06 | 26.07558 | 126.81033 | 7001 ft | 268 kts | 99° |
| 2026-04-25 14:06 | 26.07268 | 126.83072 | 7001 ft | 268 kts | 99° |
| 2026-04-25 14:06 | 26.06979 | 126.85111 | 7001 ft | 268 kts | 99° |
| 2026-04-25 14:06 | 26.06686 | 126.87171 | 7001 ft | 268 kts | 99° |
| 2026-04-25 14:07 | 26.06396 | 126.89211 | 7001 ft | 268 kts | 99° |
| 2026-04-25 14:07 | 26.06102 | 126.91271 | 7001 ft | 268 kts | 99° |
| 2026-04-25 14:07 | 26.05812 | 126.93308 | 7001 ft | 268 kts | 99° |
| 2026-04-25 14:07 | 26.05520 | 126.95354 | 6987 ft | 262 kts | 99° |
| 2026-04-25 14:08 | 26.05242 | 126.97298 | 6595 ft | 252 kts | 99° |
| 2026-04-25 14:08 | 26.04971 | 126.99182 | 6132 ft | 246 kts | 99° |
| 2026-04-25 14:08 | 26.04705 | 127.01037 | 5613 ft | 243 kts | 99° |
| 2026-04-25 14:08 | 26.04437 | 127.02901 | 5071 ft | 242 kts | 99° |
| 2026-04-25 14:09 | 26.04175 | 127.04722 | 4537 ft | 240 kts | 99° |
| 2026-04-25 14:09 | 26.03914 | 127.06541 | 4097 ft | 235 kts | 99° |
| 2026-04-25 14:09 | 26.03658 | 127.08318 | 4023 ft | 235 kts | 99° |
| 2026-04-25 14:09 | 26.03569 | 127.08933 | 4016 ft | 237 kts | 99° |
| 2026-04-25 14:10 | 26.03133 | 127.11966 | 4001 ft | 239 kts | 99° |
| 2026-04-25 14:10 | 26.02872 | 127.13780 | 4000 ft | 239 kts | 99° |
| 2026-04-25 14:10 | 26.02607 | 127.15617 | 4000 ft | 239 kts | 99° |
| 2026-04-25 14:10 | 26.02345 | 127.17432 | 4000 ft | 239 kts | 99° |
| 2026-04-25 14:11 | 26.02083 | 127.19244 | 4000 ft | 239 kts | 99° |
| 2026-04-25 14:11 | 26.01816 | 127.21086 | 4000 ft | 239 kts | 99° |
| 2026-04-25 14:11 | 26.01553 | 127.22907 | 4000 ft | 239 kts | 99° |
| 2026-04-25 14:11 | 26.01290 | 127.24719 | 4000 ft | 239 kts | 99° |
| 2026-04-25 14:12 | 26.01026 | 127.26544 | 4000 ft | 239 kts | 99° |
| 2026-04-25 14:12 | 26.00762 | 127.28360 | 4000 ft | 239 kts | 99° |
| 2026-04-25 14:12 | 26.00495 | 127.30197 | 4000 ft | 239 kts | 99° |
| 2026-04-25 14:12 | 26.00231 | 127.32012 | 4000 ft | 239 kts | 99° |
| 2026-04-25 14:13 | 25.99964 | 127.33848 | 4000 ft | 239 kts | 99° |
| 2026-04-25 14:13 | 25.99700 | 127.35662 | 3973 ft | 240 kts | 99° |
| 2026-04-25 14:13 | 25.99431 | 127.37502 | 3865 ft | 240 kts | 99° |
| 2026-04-25 14:13 | 25.99167 | 127.39314 | 3763 ft | 238 kts | 99° |
| 2026-04-25 14:14 | 25.98900 | 127.41139 | 3661 ft | 238 kts | 99° |
| 2026-04-25 14:14 | 25.98635 | 127.42952 | 3560 ft | 238 kts | 99° |
| 2026-04-25 14:14 | 25.98369 | 127.44772 | 3458 ft | 238 kts | 99° |
| 2026-04-25 14:14 | 25.98107 | 127.46559 | 3358 ft | 237 kts | 99° |
| 2026-04-25 14:15 | 25.97841 | 127.48373 | 3257 ft | 237 kts | 99° |
| 2026-04-25 14:15 | 25.97752 | 127.48977 | 3223 ft | 237 kts | 99° |
| 2026-04-25 14:15 | 25.97376 | 127.52014 | 3042 ft | 237 kts | 86° |
| 2026-04-25 14:15 | 25.97993 | 127.53582 | 3455 ft | 224 kts | 52° |
| 2026-04-25 14:16 | 25.99136 | 127.54906 | 3656 ft | 249 kts | 44° |
| 2026-04-25 14:16 | 26.00418 | 127.56196 | 3615 ft | 245 kts | 43° |
| 2026-04-25 14:16 | 26.01669 | 127.57423 | 3432 ft | 234 kts | 42° |
| 2026-04-25 14:16 | 26.02869 | 127.58598 | 3194 ft | 226 kts | 42° |
| 2026-04-25 14:17 | 26.04029 | 127.59734 | 2936 ft | 220 kts | 42° |
| 2026-04-25 14:17 | 26.05153 | 127.60835 | 2675 ft | 214 kts | 42° |
| 2026-04-25 14:17 | 26.06267 | 127.61929 | 2428 ft | 208 kts | 42° |
| 2026-04-25 14:17 | 26.07330 | 127.62974 | 2182 ft | 200 kts | 42° |
| 2026-04-25 14:18 | 26.08334 | 127.63961 | 1963 ft | 190 kts | 42° |
| 2026-04-25 14:18 | 26.09310 | 127.64890 | 1760 ft | 178 kts | 33° |
| 2026-04-25 14:18 | 26.10452 | 127.65193 | 1570 ft | 168 kts | 357° |
| 2026-04-25 14:18 | 26.11593 | 127.65001 | 1357 ft | 163 kts | 352° |
| 2026-04-25 14:19 | 26.12661 | 127.64864 | 1135 ft | 147 kts | 358° |
| 2026-04-25 14:19 | 26.13662 | 127.64814 | 952 ft | 143 kts | 359° |
| 2026-04-25 14:19 | 26.14661 | 127.64774 | 760 ft | 144 kts | 359° |
| 2026-04-25 14:19 | 26.15669 | 127.64727 | 562 ft | 144 kts | 359° |
| 2026-04-25 14:20 | 26.16670 | 127.64686 | 360 ft | 144 kts | 1° |
| 2026-04-25 14:20 | 26.16999 | 127.64694 | 283 ft | 145 kts | 2° |
| 2026-04-25 14:20 | 26.18656 | 127.64632 | 31 ft | 141 kts | 358° |
| 2026-04-25 14:20 | 26.19463 | 127.64595 | 20 ft | 82 kts | 358° |
| 2026-04-25 14:21 | 26.19820 | 127.64579 | 20 ft | 32 kts | 358° |
| 2026-04-25 14:21 | 26.20030 | 127.64565 | 20 ft | 31 kts | 357° |
| 2026-04-25 14:21 | 26.20189 | 127.64578 | 20 ft | 24 kts | 12° |
| 2026-04-25 14:21 | 26.20351 | 127.64652 | 20 ft | 12 kts | 27° |
| 2026-04-25 14:22 | 26.20429 | 127.64697 | 20 ft | 15 kts | 27° |
| 2026-04-25 14:22 | 26.20548 | 127.64752 | 20 ft | 20 kts | 360° |
| 2026-04-25 14:22 | 26.20631 | 127.64806 | 20 ft | 14 kts | 78° |
| 2026-04-25 14:22 | 26.20634 | 127.64870 | 20 ft | 6 kts | 96° |
| 2026-04-25 14:23 | 26.20603 | 127.64899 | 20 ft | 7 kts | 159° |
| 2026-04-25 14:23 | 26.20569 | 127.64921 | 19 ft | 0 kts | 144° |
| 2026-04-25 14:23 | 26.20562 | 127.64926 | 20 ft | 1 kts | 144° |
| 2026-04-25 14:23 | 26.20559 | 127.64928 | 19 ft | 0 kts | 145° |
| 2026-04-25 14:24 | 26.20557 | 127.64930 | 19 ft | 0 kts | 144° |
| 2026-04-25 14:24 | 26.20555 | 127.64932 | 19 ft | 0 kts | 144° |
| 2026-04-25 14:24 | 26.20554 | 127.64933 | 19 ft | 0 kts | 144° |